Time;durP1;ratioP1;P1;durP2;ratioP2;P2;SDS_P1;SDS_P2;PMS_P1;PMS_P2;Temp;Humidity;BMP_temperature;BMP_pressure;BME280_temperature;BME280_humidity;BME280_pressure;Samples;Min_cycle;Max_cycle;Signal;HPM_P1;HPM_P2
2023/06/19 00:01:57;;;;;;;10.87;9.77;;;;;;;15.56;69.57;100786.94;4915006;28;20217;-72
2023/06/19 00:04:23;;;;;;;11.77;10.43;;;;;;;15.53;70.18;100788.41;4913875;28;20783;-72
2023/06/19 00:06:49;;;;;;;11.73;10.63;;;;;;;15.49;70.62;100792.94;4914461;28;20671;-72
2023/06/19 00:09:17;;;;;;;10.13;9.03;;;;;;;15.46;70.32;100782.19;4906732;28;21551;-72
2023/06/19 00:11:43;;;;;;;12.00;9.50;;;;;;;15.43;70.69;100783.66;4911847;28;20252;-72
2023/06/19 00:14:10;;;;;;;14.00;10.10;;;;;;;15.40;70.83;100778.28;4915507;28;20214;-72
2023/06/19 00:16:36;;;;;;;11.03;9.83;;;;;;;15.36;70.89;100783.56;4912925;28;20247;-72
2023/06/19 00:19:04;;;;;;;12.57;10.13;;;;;;;15.32;71.49;100788.00;4912500;28;21341;-72
2023/06/19 00:21:30;;;;;;;11.00;9.67;;;;;;;15.30;71.40;100781.50;4907998;28;20217;-72
2023/06/19 00:23:57;;;;;;;11.33;10.23;;;;;;;15.26;71.93;100783.34;4915646;28;20452;-72
2023/06/19 00:26:25;;;;;;;11.07;9.97;;;;;;;15.21;72.01;100786.28;4916116;28;20233;-72
2023/06/19 00:28:51;;;;;;;11.83;10.63;;;;;;;15.14;71.53;100797.53;4913440;28;20296;-72
2023/06/19 00:31:18;;;;;;;11.30;9.83;;;;;;;15.10;71.91;100791.38;4911099;28;20214;-72
2023/06/19 00:33:45;;;;;;;11.47;10.17;;;;;;;15.08;71.38;100795.50;4929734;28;20845;-72
2023/06/19 00:36:15;;;;;;;12.70;11.37;;;;;;;15.03;71.80;100793.91;4912581;28;20224;-72
2023/06/19 00:38:42;;;;;;;13.13;10.93;;;;;;;14.97;71.95;100787.31;4914825;28;20240;-72
2023/06/19 00:41:09;;;;;;;11.90;10.67;;;;;;;14.97;72.23;100792.66;4917285;28;20563;-72
2023/06/19 00:43:35;;;;;;;11.70;10.57;;;;;;;14.95;72.37;100792.22;4914376;28;20214;-72
2023/06/19 00:46:03;;;;;;;12.93;11.17;;;;;;;14.93;72.36;100789.13;4912810;28;20236;-72
2023/06/19 00:48:32;;;;;;;12.47;11.20;;;;;;;14.90;72.03;100781.84;4908224;28;21167;-73
2023/06/19 00:50:59;;;;;;;11.23;10.07;;;;;;;14.89;72.45;100785.63;4928184;28;20584;-72
2023/06/19 00:53:27;;;;;;;11.03;9.93;;;;;;;14.87;71.96;100773.78;4932174;28;20235;-72
2023/06/19 00:55:55;;;;;;;12.53;11.23;;;;;;;14.84;72.64;100779.81;4915003;28;20212;-72
2023/06/19 00:58:22;;;;;;;11.00;9.90;;;;;;;14.79;73.01;100778.19;4912312;28;20250;-72
2023/06/19 01:00:49;;;;;;;12.93;10.60;;;;;;;14.78;73.40;100786.50;4909998;28;20217;-72
2023/06/19 01:03:16;;;;;;;11.73;10.53;;;;;;;14.74;73.20;100791.00;4911509;28;20657;-72
2023/06/19 01:05:43;;;;;;;12.10;10.90;;;;;;;14.71;72.87;100781.84;4916075;28;21059;-72
2023/06/19 01:08:17;;;;;;;12.70;11.30;;;;;;;14.69;73.35;100791.28;4921170;28;20959;-72
2023/06/19 01:10:50;;;;;;;12.77;11.17;;;;;;;14.66;73.17;100787.44;4911237;28;20557;-72
2023/06/19 01:13:20;;;;;;;12.07;10.87;;;;;;;14.62;73.22;100786.56;4911268;28;20224;-72
2023/06/19 01:15:48;;;;;;;12.97;11.17;;;;;;;14.60;73.30;100785.38;4928723;28;20220;-72
2023/06/19 01:18:16;;;;;;;12.63;11.17;;;;;;;14.60;73.41;100782.72;4911666;28;20987;-72
2023/06/19 01:20:43;;;;;;;12.00;10.80;;;;;;;14.55;73.07;100789.06;4915650;28;20792;-72
2023/06/19 01:23:12;;;;;;;11.83;10.47;;;;;;;14.54;73.84;100786.75;4913625;28;20219;-72
2023/06/19 01:25:39;;;;;;;12.53;10.90;;;;;;;14.53;74.20;100785.97;4913841;28;20288;-72
2023/06/19 01:28:09;;;;;;;14.10;12.23;;;;;;;14.52;73.76;100788.97;4916962;28;20394;-72
2023/06/19 01:30:36;;;;;;;14.83;13.27;;;;;;;14.50;73.76;100780.59;4911498;28;20459;-72
2023/06/19 01:33:09;;;;;;;13.10;11.60;;;;;;;14.50;74.29;100778.69;4913286;28;20598;-72
2023/06/19 01:35:39;;;;;;;13.10;11.80;;;;;;;14.48;74.40;100780.94;4930278;28;20694;-72
2023/06/19 01:38:07;;;;;;;13.27;11.80;;;;;;;14.47;73.75;100774.09;4926130;28;20711;-72
2023/06/19 01:40:36;;;;;;;13.70;12.30;;;;;;;14.46;74.12;100769.13;4912191;28;20427;-72
2023/06/19 01:43:04;;;;;;;14.63;11.90;;;;;;;14.46;74.11;100769.13;4912149;28;20216;-72
2023/06/19 01:45:31;;;;;;;13.80;11.50;;;;;;;14.44;74.26;100761.47;4928430;28;20314;-72
2023/06/19 01:47:58;;;;;;;13.90;11.37;;;;;;;14.42;74.28;100765.59;4908027;28;20237;-72
2023/06/19 01:50:25;;;;;;;15.03;12.60;;;;;;;14.42;74.73;100762.94;4914286;28;20231;-72
2023/06/19 01:52:52;;;;;;;14.60;11.80;;;;;;;14.39;75.31;100761.00;4913685;28;20228;-72
2023/06/19 01:55:19;;;;;;;13.30;12.00;;;;;;;14.38;74.76;100751.50;4913584;28;20215;-72
2023/06/19 01:57:46;;;;;;;12.63;11.33;;;;;;;14.35;74.83;100758.25;4908961;28;20731;-72
2023/06/19 02:00:13;;;;;;;12.90;11.40;;;;;;;14.34;74.68;100762.00;4915830;28;20217;-72
2023/06/19 02:02:42;;;;;;;12.93;11.53;;;;;;;14.30;74.69;100749.78;4915776;28;21333;-72
2023/06/19 02:05:09;;;;;;;13.63;11.80;;;;;;;14.29;74.60;100749.00;4913440;28;20215;-72
2023/06/19 02:07:35;;;;;;;13.37;11.97;;;;;;;14.27;74.80;100745.13;4913744;28;20718;-72
2023/06/19 02:10:02;;;;;;;12.50;11.20;;;;;;;14.25;75.23;100752.69;4911421;28;20247;-72
2023/06/19 02:12:28;;;;;;;12.97;11.60;;;;;;;14.22;75.55;100740.09;4903594;28;20208;-72
2023/06/19 02:14:56;;;;;;;13.73;12.33;;;;;;;14.19;75.52;100736.25;4912328;28;21316;-72
2023/06/19 02:17:23;;;;;;;12.33;10.97;;;;;;;14.17;75.50;100733.13;4909727;28;20236;-72
2023/06/19 02:19:49;;;;;;;12.27;10.97;;;;;;;14.14;75.30;100730.41;4910003;28;20571;-72
2023/06/19 02:22:18;;;;;;;13.57;11.13;;;;;;;14.10;75.49;100727.69;4904807;28;20207;-72
2023/06/19 02:24:45;;;;;;;13.23;11.67;;;;;;;14.07;75.45;100725.69;4907618;28;20695;-72
2023/06/19 02:27:15;;;;;;;15.63;12.77;;;;;;;14.06;75.55;100732.13;4911935;28;20254;-72
2023/06/19 02:29:42;;;;;;;17.20;12.57;;;;;;;14.02;75.50;100731.28;4912032;28;20212;-72
2023/06/19 02:32:10;;;;;;;14.17;12.20;;;;;;;14.00;75.44;100732.72;4912398;28;20871;-72
2023/06/19 02:34:37;;;;;;;12.83;11.37;;;;;;;13.78;76.40;100731.47;4912323;28;20226;-72
2023/06/19 02:37:06;;;;;;;12.93;11.63;;;;;;;13.70;77.40;100729.75;4909555;28;20200;-72
2023/06/19 02:39:33;;;;;;;17.20;12.30;;;;;;;13.89;75.94;100729.84;4915282;28;20219;-72
2023/06/19 02:41:59;;;;;;;13.43;12.03;;;;;;;13.92;76.41;100731.78;4912699;28;20221;-72
2023/06/19 02:44:28;;;;;;;13.97;12.43;;;;;;;13.95;76.53;100731.13;4910535;28;21268;-72
2023/06/19 02:46:55;;;;;;;14.10;12.17;;;;;;;13.95;76.53;100728.47;4904996;28;20253;-72
2023/06/19 02:49:22;;;;;;;17.30;12.43;;;;;;;13.98;76.71;100740.28;4911922;28;20215;-72
2023/06/19 02:51:49;;;;;;;14.63;12.77;;;;;;;14.00;76.72;100730.06;4912250;28;20214;-72
2023/06/19 02:54:15;;;;;;;15.60;13.50;;;;;;;14.03;76.67;100740.03;4913135;28;21570;-72
2023/06/19 02:56:42;;;;;;;13.93;12.17;;;;;;;14.07;76.85;100738.22;4910518;28;20204;-72
2023/06/19 02:59:08;;;;;;;14.37;12.63;;;;;;;14.12;76.91;100740.63;4916058;28;20606;-72
2023/06/19 03:01:35;;;;;;;14.57;12.73;;;;;;;14.17;76.88;100735.78;4928374;28;20306;-72
2023/06/19 03:04:02;;;;;;;15.50;12.93;;;;;;;14.21;76.65;100722.63;4916694;28;20825;-72
2023/06/19 03:06:30;;;;;;;16.67;12.77;;;;;;;14.26;76.26;100720.47;4932166;28;20227;-72
2023/06/19 03:08:57;;;;;;;13.90;12.40;;;;;;;14.33;76.32;100717.97;4916772;28;20234;-72
2023/06/19 03:11:24;;;;;;;14.63;12.37;;;;;;;14.39;76.01;100713.16;4912610;28;21195;-72
2023/06/19 03:13:51;;;;;;;14.47;12.97;;;;;;;14.45;75.94;100712.56;4914900;28;20232;-72
2023/06/19 03:16:20;;;;;;;15.40;13.80;;;;;;;14.53;76.13;100708.13;4916963;28;20212;-72
2023/06/19 03:18:47;;;;;;;14.97;12.60;;;;;;;14.60;75.91;100719.69;4913340;28;20731;-72
2023/06/19 03:21:16;;;;;;;14.53;13.03;;;;;;;14.67;75.93;100724.38;4931462;28;20219;-72
2023/06/19 03:23:46;;;;;;;14.70;13.17;;;;;;;14.75;75.89;100723.44;4913549;28;20209;-72
2023/06/19 03:26:13;;;;;;;14.93;13.40;;;;;;;14.82;76.28;100726.22;4913878;28;20236;-72
2023/06/19 03:28:41;;;;;;;13.57;12.17;;;;;;;14.89;76.35;100736.97;4912889;28;20240;-72
2023/06/19 03:31:09;;;;;;;13.57;12.17;;;;;;;14.90;76.42;100744.63;4914675;28;20717;-72
2023/06/19 03:33:36;;;;;;;14.20;12.70;;;;;;;15.05;76.30;100751.75;4912988;28;20301;-72
2023/06/19 03:36:04;;;;;;;13.60;12.07;;;;;;;15.16;76.26;100754.63;4909887;28;20226;-72
2023/06/19 03:39:04;;;;;;;13.67;12.37;;;;;;;15.28;75.80;100751.81;4917067;28;20241;-72
2023/06/19 03:41:30;;;;;;;17.97;13.20;;;;;;;15.40;75.46;100738.38;4913668;28;20730;-72
2023/06/19 03:43:57;;;;;;;13.63;12.23;;;;;;;15.53;75.40;100745.09;4909776;28;20221;-72
2023/06/19 03:46:25;;;;;;;12.90;11.60;;;;;;;15.65;74.95;100742.25;4905224;28;20248;-72
2023/06/19 03:48:52;;;;;;;15.20;13.60;;;;;;;15.77;75.21;100739.38;4910697;28;20234;-72
2023/06/19 03:51:18;;;;;;;16.37;14.67;;;;;;;15.88;74.76;100745.69;4914807;28;20225;-72
2023/06/19 03:53:44;;;;;;;16.50;14.80;;;;;;;15.97;74.31;100741.66;4913770;28;20223;-72
2023/06/19 03:56:12;;;;;;;15.90;14.30;;;;;;;16.07;74.00;100746.38;4915401;28;20221;-72
2023/06/19 03:58:38;;;;;;;15.80;14.07;;;;;;;16.16;72.72;100751.44;4913997;28;20866;-72
2023/06/19 04:01:05;;;;;;;14.77;13.27;;;;;;;16.27;73.02;100755.03;4913693;28;21389;-72
2023/06/19 04:03:32;;;;;;;14.97;13.47;;;;;;;16.39;73.00;100746.84;4910132;28;20212;-72
2023/06/19 04:05:59;;;;;;;16.87;15.07;;;;;;;16.51;72.09;100754.66;4915167;28;20215;-72
2023/06/19 04:08:26;;;;;;;17.17;14.90;;;;;;;16.65;72.05;100750.28;4913605;28;20233;-72
2023/06/19 04:10:52;;;;;;;16.13;14.43;;;;;;;16.82;71.72;100747.06;4914850;28;20912;-72
2023/06/19 04:13:20;;;;;;;15.33;12.93;;;;;;;16.97;71.15;100756.00;4909819;28;20582;-73
2023/06/19 04:15:46;;;;;;;14.83;13.33;;;;;;;17.10;70.64;100743.94;4913762;28;20730;-72
2023/06/19 04:18:13;;;;;;;15.27;13.67;;;;;;;17.23;70.15;100751.34;4915016;28;20742;-72
2023/06/19 04:20:40;;;;;;;15.97;13.73;;;;;;;17.34;69.67;100757.56;4905260;28;20960;-73
2023/06/19 04:23:06;;;;;;;14.40;12.90;;;;;;;17.45;69.22;100752.38;4909414;28;20236;-72
2023/06/19 04:25:32;;;;;;;14.83;13.23;;;;;;;17.53;68.62;100751.28;4908176;28;20210;-72
2023/06/19 04:27:59;;;;;;;14.60;13.10;;;;;;;17.61;68.43;100748.34;4909839;28;20238;-73
2023/06/19 04:30:26;;;;;;;14.70;12.90;;;;;;;17.71;68.19;100753.00;4913447;28;20217;-72
2023/06/19 04:32:53;;;;;;;15.50;13.90;;;;;;;17.79;68.03;100748.47;4914164;28;21126;-73
2023/06/19 04:35:19;;;;;;;14.30;12.77;;;;;;;17.87;67.68;100744.72;4912290;28;21744;-72
2023/06/19 04:37:48;;;;;;;16.23;14.57;;;;;;;17.95;67.25;100743.66;4924157;28;20232;-72
2023/06/19 04:40:15;;;;;;;17.83;13.50;;;;;;;18.00;67.30;100741.41;4906314;28;21645;-72
2023/06/19 04:42:41;;;;;;;15.23;13.70;;;;;;;18.09;66.86;100743.75;4907091;28;20214;-73
2023/06/19 04:45:09;;;;;;;14.93;13.43;;;;;;;18.15;66.66;100751.06;4908666;28;20424;-73
2023/06/19 04:47:37;;;;;;;14.53;13.03;;;;;;;18.21;66.49;100754.16;4909387;28;20720;-73
2023/06/19 04:50:05;;;;;;;14.63;13.20;;;;;;;18.24;65.69;100758.75;4909463;28;20214;-73
2023/06/19 04:52:33;;;;;;;14.87;13.27;;;;;;;18.28;65.74;100768.34;4911318;28;20206;-73
2023/06/19 04:54:59;;;;;;;15.17;12.70;;;;;;;18.32;65.59;100771.06;4906329;28;20297;-72
2023/06/19 04:57:25;;;;;;;14.30;12.87;;;;;;;18.37;65.65;100768.03;4908695;28;21409;-72
2023/06/19 04:59:52;;;;;;;15.67;13.07;;;;;;;18.42;65.36;100775.72;4918990;28;20276;-73
2023/06/19 05:02:18;;;;;;;15.00;13.50;;;;;;;18.49;65.19;100779.19;4905802;28;20218;-73
2023/06/19 05:04:46;;;;;;;14.00;12.60;;;;;;;18.28;66.12;100789.72;4909300;28;20209;-72
2023/06/19 05:07:15;;;;;;;14.37;12.97;;;;;;;18.32;66.03;100787.84;4916224;28;21343;-72
2023/06/19 05:09:41;;;;;;;14.60;13.10;;;;;;;18.38;66.37;100786.38;4914258;28;21745;-73
2023/06/19 05:12:08;;;;;;;14.77;13.27;;;;;;;18.45;65.96;100791.78;4919215;28;20210;-73
2023/06/19 05:14:34;;;;;;;13.93;12.53;;;;;;;18.52;65.75;100799.84;4917146;28;20831;-73
2023/06/19 05:17:01;;;;;;;14.17;12.70;;;;;;;18.59;65.89;100799.13;4916591;28;20206;-72
2023/06/19 05:19:27;;;;;;;13.87;12.43;;;;;;;18.89;64.35;100792.38;4918247;28;20217;-72
2023/06/19 05:21:55;;;;;;;14.23;12.47;;;;;;;19.01;63.91;100788.63;4914747;28;20206;-73
2023/06/19 05:24:21;;;;;;;13.77;12.47;;;;;;;19.11;63.94;100787.91;4934715;28;20214;-73
2023/06/19 05:26:48;;;;;;;13.53;12.23;;;;;;;19.20;63.60;100786.38;4914371;28;20214;-72
2023/06/19 05:29:14;;;;;;;13.57;12.17;;;;;;;19.30;63.05;100790.28;4916345;28;20229;-73
2023/06/19 05:31:40;;;;;;;14.70;12.13;;;;;;;19.39;62.90;100785.31;4912040;28;20815;-73
2023/06/19 05:34:07;;;;;;;15.20;12.43;;;;;;;19.52;62.96;100781.16;4916038;28;20428;-73
2023/06/19 05:36:33;;;;;;;13.00;11.67;;;;;;;19.66;62.36;100786.56;4913484;28;20213;-73
2023/06/19 05:39:01;;;;;;;15.73;14.03;;;;;;;19.56;63.20;100785.38;4912304;28;20226;-72
2023/06/19 05:41:28;;;;;;;13.27;11.97;;;;;;;19.71;62.28;100789.59;4918767;28;20224;-72
2023/06/19 05:43:54;;;;;;;14.30;12.37;;;;;;;19.91;62.38;100800.72;4915450;28;20817;-73
2023/06/19 05:46:20;;;;;;;13.07;11.53;;;;;;;20.01;61.00;100803.41;4919423;28;20206;-73
2023/06/19 05:48:47;;;;;;;14.23;11.70;;;;;;;20.15;60.79;100808.81;4916236;28;20241;-73
2023/06/19 05:51:15;;;;;;;12.93;11.40;;;;;;;20.31;61.25;100813.75;4918418;28;21310;-73
2023/06/19 05:53:41;;;;;;;13.80;11.57;;;;;;;20.61;61.22;100809.53;4917579;28;20236;-73
2023/06/19 05:56:09;;;;;;;12.80;11.47;;;;;;;20.80;59.37;100802.94;4917876;28;20214;-73
2023/06/19 05:58:35;;;;;;;12.50;11.33;;;;;;;20.93;60.11;100801.38;4917003;28;20236;-73
2023/06/19 06:01:02;;;;;;;12.10;10.53;;;;;;;21.05;59.83;100800.97;4916498;28;20214;-73
2023/06/19 06:03:30;;;;;;;12.93;11.37;;;;;;;21.15;60.16;100795.53;4915990;28;20217;-73
2023/06/19 06:06:02;;;;;;;12.33;10.90;;;;;;;21.25;57.79;100796.66;4916275;28;20604;-73
2023/06/19 06:08:28;;;;;;;12.43;11.13;;;;;;;21.34;57.35;100786.25;4916978;28;20261;-72
2023/06/19 06:10:55;;;;;;;12.37;11.17;;;;;;;21.41;58.81;100797.72;4912865;28;20787;-73
2023/06/19 06:13:22;;;;;;;14.00;11.60;;;;;;;21.46;58.62;100785.78;4912053;28;20354;-73
2023/06/19 06:15:49;;;;;;;12.43;11.23;;;;;;;21.50;58.38;100781.94;4914133;28;20209;-72
2023/06/19 06:18:15;;;;;;;11.40;10.00;;;;;;;21.58;57.67;100786.09;4916320;28;20230;-73
2023/06/19 06:20:41;;;;;;;12.60;10.70;;;;;;;21.65;57.92;100786.06;4912199;28;21894;-73
2023/06/19 06:23:08;;;;;;;15.47;11.33;;;;;;;21.69;57.79;100781.44;4912996;28;21025;-73
2023/06/19 06:25:34;;;;;;;13.03;10.57;;;;;;;21.75;57.11;100781.78;4918936;28;21305;-73
2023/06/19 06:28:01;;;;;;;12.30;11.03;;;;;;;21.76;56.89;100789.47;4915334;28;20237;-73
2023/06/19 06:30:29;;;;;;;14.03;12.10;;;;;;;21.80;58.08;100784.06;4922851;28;20958;-72
2023/06/19 06:32:55;;;;;;;13.00;11.70;;;;;;;21.82;57.58;100793.25;4919067;28;20301;-72
2023/06/19 06:35:22;;;;;;;13.03;11.67;;;;;;;21.89;55.96;100790.50;4919638;28;20822;-72
2023/06/19 06:37:49;;;;;;;11.77;10.67;;;;;;;21.73;58.00;100786.81;4917802;28;20593;-73
2023/06/19 06:40:16;;;;;;;12.87;11.57;;;;;;;21.67;57.79;100788.34;4920591;28;20210;-73
2023/06/19 06:42:42;;;;;;;12.93;11.63;;;;;;;21.74;57.60;100793.69;4920663;28;20213;-73
2023/06/19 06:45:10;;;;;;;13.03;11.67;;;;;;;21.76;59.06;100794.84;4920390;28;20209;-73
2023/06/19 06:47:37;;;;;;;12.80;11.60;;;;;;;21.80;56.99;100792.13;4921130;28;20233;-73
2023/06/19 06:50:04;;;;;;;13.60;11.03;;;;;;;22.15;57.44;100791.84;4919064;28;20764;-73
2023/06/19 06:52:31;;;;;;;13.57;11.43;;;;;;;22.24;56.28;100787.50;4922382;28;20206;-73
2023/06/19 06:54:58;;;;;;;12.77;11.07;;;;;;;22.30;56.46;100793.25;4917457;28;20222;-73
2023/06/19 06:57:25;;;;;;;12.10;10.80;;;;;;;22.40;55.82;100797.75;4922405;28;20929;-72
2023/06/19 06:59:51;;;;;;;12.33;11.10;;;;;;;22.45;55.48;100792.72;4921026;28;20707;-73
2023/06/19 07:02:18;;;;;;;14.35;11.43;;;;;;;22.49;56.11;100790.00;4920825;28;21628;-73
2023/06/19 07:04:45;;;;;;;14.60;11.33;;;;;;;22.22;56.47;100791.75;4918425;28;20917;-73
2023/06/19 07:07:12;;;;;;;13.13;11.73;;;;;;;22.22;56.90;100789.84;4917624;28;20244;-73
2023/06/19 07:09:38;;;;;;;12.10;11.00;;;;;;;22.25;56.30;100789.03;4917988;28;20225;-73
2023/06/19 07:12:06;;;;;;;12.33;10.97;;;;;;;22.29;57.16;100797.06;4918157;28;20217;-73
2023/06/19 07:14:33;;;;;;;12.13;10.93;;;;;;;22.33;56.34;100790.50;4920882;28;20297;-73
2023/06/19 07:16:59;;;;;;;12.18;10.88;;;;;;;22.39;56.78;100796.22;4918963;28;20831;-73
2023/06/19 07:19:26;;;;;;;12.43;10.98;;;;;;;22.42;56.55;100793.50;4920821;28;20206;-73
2023/06/19 07:21:54;;;;;;;12.05;10.85;;;;;;;22.79;55.33;100787.34;4919451;28;20206;-72
2023/06/19 07:24:20;;;;;;;12.00;10.80;;;;;;;22.87;54.61;100786.88;4921313;28;20214;-73
2023/06/19 07:26:47;;;;;;;11.60;10.50;;;;;;;22.95;54.16;100785.63;4918710;28;20214;-72
2023/06/19 07:29:13;;;;;;;12.00;10.70;;;;;;;22.85;54.63;100786.53;4920785;28;20904;-72
2023/06/19 07:31:42;;;;;;;10.82;9.80;;;;;;;22.99;55.28;100789.06;4920253;28;20221;-73
2023/06/19 07:34:08;;;;;;;11.25;10.25;;;;;;;23.10;54.75;100792.38;4936259;28;20329;-73
2023/06/19 07:36:35;;;;;;;12.00;10.80;;;;;;;23.17;55.01;100796.91;4921839;28;20647;-73
2023/06/19 07:39:03;;;;;;;10.80;9.70;;;;;;;23.26;54.17;100797.19;4919346;28;20578;-73
2023/06/19 07:41:29;;;;;;;11.30;9.63;;;;;;;23.38;54.18;100804.75;4920712;28;20214;-73
2023/06/19 07:43:56;;;;;;;11.15;10.10;;;;;;;23.46;54.07;100808.09;4918134;28;20632;-73
2023/06/19 07:46:22;;;;;;;12.05;9.75;;;;;;;23.58;53.75;100806.38;4921421;28;20210;-73
2023/06/19 07:48:48;;;;;;;10.95;9.82;;;;;;;23.68;54.17;100818.94;4919877;28;20233;-73
2023/06/19 07:51:15;;;;;;;10.57;9.57;;;;;;;23.78;54.03;100819.94;4920644;28;20214;-73
2023/06/19 07:53:43;;;;;;;11.07;10.00;;;;;;;23.89;54.13;100817.88;4920492;28;20225;-73
2023/06/19 07:56:10;;;;;;;10.45;9.40;;;;;;;23.98;52.41;100826.19;4919950;28;20218;-73
2023/06/19 07:58:37;;;;;;;12.40;9.27;;;;;;;24.05;52.68;100826.09;4920944;28;20238;-72
2023/06/19 08:01:03;;;;;;;10.15;9.23;;;;;;;24.16;52.76;100823.22;4920308;28;20214;-73
2023/06/19 08:03:30;;;;;;;10.30;9.40;;;;;;;24.08;52.36;100822.56;4920034;28;20944;-73
2023/06/19 08:05:56;;;;;;;12.10;8.90;;;;;;;24.03;51.83;100833.84;4918591;28;20245;-73
2023/06/19 08:08:23;;;;;;;10.13;9.10;;;;;;;24.10;52.29;100827.56;4918038;28;20249;-72
2023/06/19 08:10:49;;;;;;;10.82;9.02;;;;;;;24.19;52.90;100825.13;4918125;28;21328;-73
2023/06/19 08:13:17;;;;;;;9.32;8.45;;;;;;;24.29;52.79;100818.78;4920600;28;20589;-73
2023/06/19 08:15:45;;;;;;;9.93;8.73;;;;;;;24.39;52.88;100804.34;4918835;28;20240;-73
2023/06/19 08:18:11;;;;;;;9.48;8.48;;;;;;;24.53;51.15;100810.22;4915615;28;21504;-73
2023/06/19 08:20:37;;;;;;;13.70;7.85;;;;;;;24.64;50.44;100815.44;4919706;28;20209;-73
2023/06/19 08:23:04;;;;;;;10.40;7.47;;;;;;;24.76;51.67;100820.25;4919087;28;21008;-73
2023/06/19 08:25:30;;;;;;;8.63;7.82;;;;;;;24.89;51.03;100819.22;4918318;28;21204;-73
2023/06/19 08:27:57;;;;;;;8.60;7.70;;;;;;;25.00;48.58;100814.34;4918013;28;20249;-73
2023/06/19 08:30:24;;;;;;;9.50;7.72;;;;;;;25.08;50.68;100814.97;4919150;28;20210;-73
2023/06/19 08:32:51;;;;;;;8.05;7.35;;;;;;;25.18;47.89;100814.00;4916248;28;20214;-73
2023/06/19 08:35:17;;;;;;;8.48;7.68;;;;;;;25.25;47.15;100817.34;4917673;28;20225;-73
2023/06/19 08:37:44;;;;;;;8.50;7.60;;;;;;;25.33;47.49;100812.53;4918592;28;20252;-73
2023/06/19 08:40:12;;;;;;;8.68;7.88;;;;;;;25.41;48.02;100808.50;4918864;28;20617;-73
2023/06/19 08:42:39;;;;;;;8.95;7.72;;;;;;;25.48;46.83;100802.94;4919555;28;20214;-73
2023/06/19 08:45:07;;;;;;;8.38;7.50;;;;;;;25.55;48.29;100795.44;4916814;28;20206;-73
2023/06/19 08:47:36;;;;;;;9.75;7.55;;;;;;;25.64;46.96;100802.97;4910291;28;20360;-73
2023/06/19 08:50:03;;;;;;;12.18;7.70;;;;;;;25.70;46.45;100798.56;4915206;28;20229;-73
2023/06/19 08:52:29;;;;;;;8.77;7.13;;;;;;;25.76;47.24;100796.88;4916186;28;21250;-73
2023/06/19 08:54:56;;;;;;;8.52;7.18;;;;;;;25.81;44.03;100807.19;4917416;28;20921;-73
2023/06/19 08:57:22;;;;;;;10.35;7.47;;;;;;;25.87;44.01;100797.38;4917533;28;20314;-73
2023/06/19 08:59:50;;;;;;;8.05;6.93;;;;;;;25.94;45.23;100800.69;4916513;28;20206;-73
2023/06/19 09:02:16;;;;;;;7.60;6.90;;;;;;;26.03;45.48;100800.88;4918906;28;20234;-73
2023/06/19 09:04:44;;;;;;;7.53;6.75;;;;;;;26.16;45.70;100807.09;4919242;28;20220;-73
2023/06/19 09:07:13;;;;;;;7.85;7.05;;;;;;;26.31;45.89;100804.81;4917653;28;20229;-73
2023/06/19 09:09:46;;;;;;;9.88;7.18;;;;;;;26.44;45.43;100800.97;4934530;28;20364;-73
2023/06/19 09:12:14;;;;;;;8.38;7.00;;;;;;;26.76;43.62;100798.19;4917238;28;20900;-73
2023/06/19 09:14:44;;;;;;;10.20;6.90;;;;;;;26.99;43.02;100795.19;4917946;28;20210;-73
2023/06/19 09:17:12;;;;;;;9.50;6.70;;;;;;;27.16;42.51;100801.28;4914762;28;20806;-73
2023/06/19 09:19:39;;;;;;;10.57;6.93;;;;;;;27.27;41.67;100804.47;4918559;28;20214;-73
2023/06/19 09:22:08;;;;;;;9.13;7.00;;;;;;;27.43;44.34;100801.66;4918176;28;20225;-73
2023/06/19 09:24:36;;;;;;;8.70;6.63;;;;;;;27.58;41.94;100800.81;4918008;28;20882;-73
2023/06/19 09:27:12;;;;;;;7.68;6.97;;;;;;;27.74;40.51;100795.25;4914436;28;20210;-73
2023/06/19 09:29:39;;;;;;;7.03;6.22;;;;;;;27.86;39.85;100801.91;4916624;28;20229;-73
2023/06/19 09:32:18;;;;;;;6.90;6.30;;;;;;;27.96;40.18;100793.38;4916359;28;20224;-73
2023/06/19 09:34:47;;;;;;;8.40;7.28;;;;;;;28.08;40.27;100789.88;4917003;28;20600;-73
2023/06/19 09:37:15;;;;;;;7.60;6.90;;;;;;;28.22;40.15;100792.13;4916390;28;20232;-73
2023/06/19 09:39:42;;;;;;;7.57;6.88;;;;;;;28.37;39.21;100785.00;4919045;28;20237;-73
2023/06/19 09:42:14;;;;;;;7.63;6.93;;;;;;;28.48;38.37;100787.41;4914671;28;22206;-73
2023/06/19 09:44:42;;;;;;;8.55;7.28;;;;;;;28.59;39.71;100788.50;4916618;28;20217;-73
2023/06/19 09:47:18;;;;;;;9.40;6.70;;;;;;;28.76;39.15;100791.81;4915960;28;20214;-73
2023/06/19 09:49:50;;;;;;;9.85;6.75;;;;;;;28.93;38.50;100777.56;4916346;28;20260;-73
2023/06/19 09:52:20;;;;;;;6.18;5.68;;;;;;;29.12;38.17;100787.38;4917915;28;20224;-73
2023/06/19 09:54:47;;;;;;;8.60;6.88;;;;;;;29.28;38.02;100789.84;4916530;28;20213;-73
2023/06/19 09:57:13;;;;;;;9.13;6.55;;;;;;;29.46;37.92;100792.63;4915515;28;20283;-73
2023/06/19 09:59:42;;;;;;;6.95;6.05;;;;;;;29.63;38.12;100788.47;4917438;28;20763;-73
2023/06/19 10:02:10;;;;;;;7.95;6.15;;;;;;;29.78;36.56;100794.13;4916406;28;20312;-73
2023/06/19 10:04:45;;;;;;;8.73;6.30;;;;;;;29.92;35.25;100783.41;4918015;28;20597;-73
2023/06/19 10:07:18;;;;;;;7.13;6.00;;;;;;;30.04;37.77;100784.47;4920139;28;21891;-73
2023/06/19 10:09:56;;;;;;;6.50;5.90;;;;;;;30.17;37.53;100779.66;4919946;28;20634;-73
2023/06/19 10:12:23;;;;;;;6.55;5.85;;;;;;;30.27;36.90;100792.84;4917775;28;20922;-73
2023/06/19 10:14:50;;;;;;;6.70;5.40;;;;;;;30.28;37.71;100790.88;4916240;28;20590;-73
2023/06/19 10:17:17;;;;;;;7.70;5.63;;;;;;;30.35;35.88;100787.84;4918367;28;20225;-73
2023/06/19 10:19:50;;;;;;;6.95;5.90;;;;;;;30.32;34.12;100784.06;4921555;28;20229;-73
2023/06/19 10:22:22;;;;;;;7.63;6.10;;;;;;;30.30;32.62;100783.75;4920780;28;20804;-73
2023/06/19 10:24:50;;;;;;;7.13;5.55;;;;;;;30.42;34.16;100779.34;4917357;28;20293;-73
2023/06/19 10:27:22;;;;;;;5.95;5.43;;;;;;;30.47;33.70;100782.25;4918780;28;20234;-73
2023/06/19 10:29:53;;;;;;;5.85;5.25;;;;;;;30.55;33.22;100780.72;4919295;28;20229;-73
2023/06/19 10:32:19;;;;;;;6.47;5.88;;;;;;;30.62;35.29;100774.97;4920488;28;20214;-73
2023/06/19 10:34:47;;;;;;;7.75;5.53;;;;;;;30.76;34.58;100777.06;4918474;28;20515;-73
2023/06/19 10:37:14;;;;;;;6.75;6.15;;;;;;;30.89;33.40;100776.88;4919953;28;20360;-72
2023/06/19 10:39:42;;;;;;;6.22;5.63;;;;;;;30.91;31.90;100769.00;4920797;28;20296;-72
2023/06/19 10:42:10;;;;;;;6.05;5.55;;;;;;;30.87;33.32;100779.31;4919768;28;20214;-72
2023/06/19 10:44:37;;;;;;;6.55;5.95;;;;;;;30.93;33.49;100764.63;4917982;28;20591;-73
2023/06/19 10:47:04;;;;;;;6.22;5.72;;;;;;;30.99;33.11;100767.47;4917772;28;20787;-72
2023/06/19 10:49:31;;;;;;;6.53;5.93;;;;;;;30.99;32.67;100759.28;4921383;28;20240;-73
2023/06/19 10:52:00;;;;;;;7.97;5.82;;;;;;;31.06;31.49;100756.97;4917985;28;20229;-73
2023/06/19 10:54:26;;;;;;;6.32;5.70;;;;;;;31.03;32.03;100755.16;4918515;28;20206;-72
2023/06/19 10:56:54;;;;;;;6.70;6.10;;;;;;;31.06;31.84;100756.97;4919213;28;20214;-72
2023/06/19 10:59:20;;;;;;;6.90;5.88;;;;;;;31.23;33.35;100757.41;4918719;28;20221;-73
2023/06/19 11:01:48;;;;;;;6.45;5.75;;;;;;;31.28;32.15;100754.78;4919514;28;20879;-72
2023/06/19 11:04:16;;;;;;;6.40;5.78;;;;;;;31.28;32.83;100754.78;4920143;28;20214;-73
2023/06/19 11:06:45;;;;;;;5.85;5.22;;;;;;;31.29;31.11;100759.03;4919879;28;20233;-72
2023/06/19 11:09:13;;;;;;;6.78;6.18;;;;;;;31.22;30.40;100753.91;4916773;28;20225;-73
2023/06/19 11:11:41;;;;;;;6.90;5.93;;;;;;;31.16;31.00;100750.28;4919759;28;20218;-72
2023/06/19 11:14:09;;;;;;;8.10;5.78;;;;;;;31.16;34.52;100749.50;4916493;28;21912;-72
2023/06/19 11:16:39;;;;;;;7.35;6.60;;;;;;;31.13;31.60;100748.44;4919735;28;20213;-72